createdAt,value
2023-01-09T00:02:08.383Z,6.25
2023-01-09T00:18:04.294Z,7.63
2023-01-09T00:20:57.071Z,6.78
2023-01-09T00:23:51.377Z,5.63
2023-01-09T00:31:08.407Z,6.88
2023-01-09T00:34:17.398Z,9.00
2023-01-09T00:37:17.147Z,6.65
2023-01-09T00:40:14.015Z,7.90
2023-01-09T00:43:08.943Z,6.95
2023-01-09T00:46:10.355Z,7.13
2023-01-09T00:49:09.783Z,9.40
2023-01-09T00:52:20.335Z,9.43
2023-01-09T00:55:19.942Z,9.48
2023-01-09T00:58:14.117Z,9.05
2023-01-09T01:03:54.461Z,10.65
2023-01-09T01:07:01.776Z,11.02
2023-01-09T01:09:54.684Z,14.90
2023-01-09T01:12:44.569Z,12.40
2023-01-09T01:27:22.302Z,15.80
2023-01-09T01:34:09.947Z,17.33
2023-01-09T01:37:48.890Z,16.30
2023-01-09T01:41:25.028Z,17.33
2023-01-09T01:45:26.259Z,17.02
2023-01-09T01:48:58.776Z,21.45
2023-01-09T01:52:04.474Z,24.48
2023-01-09T01:55:34.022Z,16.77
2023-01-09T02:02:57.388Z,13.27
2023-01-09T02:06:07.738Z,10.98
2023-01-09T02:09:21.030Z,10.68
2023-01-09T02:12:55.370Z,11.30
2023-01-09T02:16:47.564Z,11.37
2023-01-09T02:20:40.895Z,10.02
2023-01-09T02:24:04.410Z,8.82
2023-01-09T02:31:14.920Z,7.72
2023-01-09T02:34:35.553Z,7.05
2023-01-09T02:41:54.392Z,8.40
2023-01-09T02:45:13.934Z,9.73
2023-01-09T02:48:07.808Z,7.97
2023-01-09T02:51:58.010Z,7.40
2023-01-09T03:03:01.035Z,7.57
2023-01-09T03:05:57.671Z,7.40
2023-01-09T03:09:42.101Z,8.68
2023-01-09T03:12:34.805Z,9.60
2023-01-09T03:15:51.476Z,13.20
2023-01-09T03:19:11.517Z,17.73
2023-01-09T03:22:12.170Z,13.77
2023-01-09T03:36:16.566Z,13.70
2023-01-09T03:42:37.258Z,11.60
2023-01-09T03:49:42.937Z,9.98
2023-01-09T03:53:18.035Z,6.55
2023-01-09T03:56:35.328Z,9.80
2023-01-09T04:10:07.516Z,3.13
2023-01-09T04:13:17.405Z,4.07
2023-01-09T04:16:27.661Z,1.73
2023-01-09T04:22:48.707Z,2.08
2023-01-09T04:25:53.916Z,3.30
2023-01-09T04:28:42.461Z,1.98
2023-01-09T04:38:01.633Z,3.80
2023-01-09T04:41:07.672Z,2.05
2023-01-09T04:47:30.691Z,1.48
2023-01-09T04:50:52.673Z,1.33
2023-01-09T04:53:51.084Z,1.40
2023-01-09T04:56:39.262Z,1.30
2023-01-09T04:59:47.041Z,1.20
2023-01-09T05:03:13.105Z,1.05
2023-01-09T05:06:32.169Z,2.38
2023-01-09T05:09:47.541Z,0.98
2023-01-09T05:12:47.716Z,2.30
2023-01-09T05:15:52.887Z,2.22
2023-01-09T05:19:20.579Z,2.05
2023-01-09T05:22:21.192Z,1.10
2023-01-09T05:25:38.471Z,2.75
2023-01-09T05:29:06.012Z,2.67
2023-01-09T05:32:02.220Z,1.65
2023-01-09T05:35:02.030Z,2.08
2023-01-09T05:38:03.972Z,1.00
2023-01-09T05:41:06.569Z,1.00
2023-01-09T05:48:12.335Z,2.40
2023-01-09T05:51:20.395Z,2.33
2023-01-09T05:57:44.822Z,1.20
2023-01-09T06:03:33.084Z,1.48
2023-01-09T06:10:37.269Z,2.35
2023-01-09T06:13:35.828Z,3.55
2023-01-09T06:17:38.717Z,2.40
2023-01-09T06:22:45.384Z,2.97
2023-01-09T06:31:58.969Z,1.55
2023-01-09T06:36:53.572Z,4.35
2023-01-09T06:58:48.205Z,2.58
2023-01-09T07:02:18.179Z,1.73
2023-01-09T07:09:02.729Z,4.47
2023-01-09T07:11:57.777Z,4.47
2023-01-09T07:14:48.238Z,5.85
2023-01-09T07:17:52.128Z,7.65
2023-01-09T07:20:43.891Z,5.80
2023-01-09T07:24:46.728Z,3.05
2023-01-09T07:27:54.159Z,6.97
2023-01-09T07:30:44.879Z,5.30
2023-01-09T07:33:38.896Z,7.13
2023-01-09T07:39:22.991Z,7.88
2023-01-09T07:42:12.513Z,4.70
2023-01-09T07:45:11.536Z,9.68
2023-01-09T07:48:05.053Z,11.80
2023-01-09T07:50:53.585Z,6.78
2023-01-09T07:53:41.331Z,5.53
2023-01-09T07:56:48.588Z,5.28
2023-01-09T07:59:37.892Z,6.50
2023-01-09T08:02:33.126Z,6.28
2023-01-09T08:08:29.761Z,6.90
2023-01-09T08:11:19.174Z,4.60
2023-01-09T08:14:16.594Z,5.78
2023-01-09T08:17:12.375Z,3.83
2023-01-09T08:20:03.624Z,6.82
2023-01-09T08:22:55.610Z,10.63
2023-01-09T08:25:45.859Z,6.47
2023-01-09T08:28:34.091Z,8.98
2023-01-09T08:31:23.059Z,6.65
2023-01-09T08:34:16.669Z,5.47
2023-01-09T08:37:04.880Z,7.93
2023-01-09T08:39:59.959Z,6.20
2023-01-09T08:43:07.780Z,4.32
2023-01-09T08:46:17.539Z,6.47
2023-01-09T08:49:05.753Z,4.90
2023-01-09T08:51:53.928Z,6.25
2023-01-09T08:54:41.820Z,4.32
2023-01-09T08:57:32.401Z,4.63
2023-01-09T09:00:35.743Z,4.93
2023-01-09T09:03:24.662Z,2.75
2023-01-09T09:06:12.877Z,5.65
2023-01-09T09:09:07.104Z,4.32
2023-01-09T09:12:00.576Z,7.90
2023-01-09T09:15:07.075Z,8.23
2023-01-09T09:18:04.312Z,4.28
2023-01-09T09:20:56.713Z,4.35
2023-01-09T09:23:47.258Z,4.43
2023-01-09T09:26:34.928Z,6.10
2023-01-09T09:29:24.805Z,6.43
2023-01-09T09:32:15.692Z,2.35
2023-01-09T09:35:03.741Z,2.33
2023-01-09T09:37:55.200Z,3.92
2023-01-09T09:41:32.028Z,2.70
2023-01-09T09:45:05.693Z,4.05
2023-01-09T09:47:54.850Z,3.92
2023-01-09T09:51:00.686Z,3.80
2023-01-09T09:54:03.462Z,2.92
2023-01-09T09:56:54.847Z,1.95
2023-01-09T09:59:51.964Z,2.15
2023-01-09T10:02:52.648Z,3.78
2023-01-09T10:05:45.824Z,1.80
2023-01-09T10:09:02.954Z,2.88
2023-01-09T10:12:12.501Z,4.85
2023-01-09T10:15:07.482Z,2.75
2023-01-09T10:18:12.301Z,2.75
2023-01-09T10:21:36.602Z,2.22
2023-01-09T10:25:04.709Z,1.60
2023-01-09T10:28:20.709Z,5.25
2023-01-09T10:31:25.283Z,2.55
2023-01-09T10:34:46.877Z,3.15
2023-01-09T10:37:44.150Z,5.18
2023-01-09T10:40:49.888Z,3.38
2023-01-09T10:43:47.773Z,5.43
2023-01-09T10:46:48.567Z,7.40
2023-01-09T10:49:38.759Z,5.22
2023-01-09T10:52:36.359Z,1.35
2023-01-09T10:55:34.278Z,1.98
2023-01-09T10:58:23.417Z,3.33
2023-01-09T11:01:11.810Z,3.10
2023-01-09T11:04:02.132Z,3.17
2023-01-09T11:06:57.100Z,3.90
2023-01-09T11:10:19.892Z,4.97
2023-01-09T11:13:20.036Z,6.13
2023-01-09T11:16:11.278Z,7.40
2023-01-09T11:19:04.600Z,5.55
2023-01-09T11:22:12.247Z,3.27
2023-01-09T11:25:04.387Z,4.25
2023-01-09T11:28:09.070Z,2.60
2023-01-09T11:31:05.844Z,5.35
2023-01-09T11:34:01.755Z,7.07
2023-01-09T11:37:08.698Z,5.40
2023-01-09T11:39:59.107Z,5.10
2023-01-09T11:43:32.977Z,6.55
2023-01-09T11:46:44.083Z,3.33
2023-01-09T11:49:32.529Z,7.28
2023-01-09T11:52:22.554Z,3.60
2023-01-09T11:55:15.876Z,8.00
2023-01-09T11:58:04.635Z,4.50
2023-01-09T12:01:12.749Z,7.13
2023-01-09T12:04:32.165Z,4.30
2023-01-09T12:07:49.247Z,6.10
2023-01-09T12:11:05.386Z,4.50
2023-01-09T12:14:22.927Z,4.55
2023-01-09T12:17:23.816Z,7.30
2023-01-09T12:20:39.716Z,4.20
2023-01-09T12:24:10.910Z,9.10
2023-01-09T12:27:17.127Z,5.28
2023-01-09T12:30:36.986Z,5.45
2023-01-09T12:33:42.002Z,1.52
2023-01-09T12:36:54.011Z,3.28
2023-01-09T12:40:06.419Z,5.97
2023-01-09T12:43:33.294Z,2.45
2023-01-09T12:46:29.317Z,3.53
2023-01-09T12:49:29.538Z,6.15
2023-01-09T12:52:36.917Z,5.05
2023-01-09T12:55:45.965Z,4.57
2023-01-09T12:58:47.844Z,6.13
2023-01-09T13:02:10.269Z,6.80
2023-01-09T13:05:16.218Z,9.30
2023-01-09T13:08:15.035Z,4.25
2023-01-09T13:11:23.015Z,7.47
2023-01-09T13:14:33.886Z,4.47
2023-01-09T13:17:58.318Z,6.50
2023-01-09T13:21:00.304Z,5.75
2023-01-09T13:24:04.616Z,3.83
2023-01-09T13:29:48.095Z,9.77
2023-01-09T13:32:41.568Z,4.43
2023-01-09T13:35:32.170Z,2.70
2023-01-09T13:38:28.013Z,3.50
2023-01-09T13:41:37.590Z,2.22
2023-01-09T13:44:33.724Z,1.70
2023-01-09T13:47:36.726Z,2.42
2023-01-09T13:50:30.629Z,2.53
2023-01-09T13:53:51.439Z,1.40
2023-01-09T13:57:19.832Z,3.00
2023-01-09T14:00:14.706Z,3.03
2023-01-09T14:03:21.735Z,1.73
2023-01-09T14:06:17.624Z,1.17
2023-01-09T14:09:26.922Z,1.50
2023-01-09T14:12:22.348Z,3.80
2023-01-09T14:15:37.063Z,1.42
2023-01-09T14:18:36.212Z,0.90
2023-01-09T14:21:24.522Z,1.05
2023-01-09T14:24:21.510Z,1.80
2023-01-09T14:27:48.310Z,1.67
2023-01-09T14:31:00.604Z,1.58
2023-01-09T14:34:31.162Z,1.23
2023-01-09T14:37:20.759Z,1.10
2023-01-09T14:40:18.498Z,1.92
2023-01-09T14:43:27.759Z,2.28
2023-01-09T14:46:19.045Z,0.90
2023-01-09T14:49:36.890Z,1.13
2023-01-09T14:52:37.774Z,2.55
2023-01-09T14:55:53.642Z,3.20
2023-01-09T14:58:41.448Z,4.28
2023-01-09T15:01:32.770Z,1.65
2023-01-09T15:04:36.470Z,2.20
2023-01-09T15:07:37.828Z,1.65
2023-01-09T15:10:31.252Z,1.98
2023-01-09T15:13:32.725Z,1.30
2023-01-09T15:16:24.810Z,2.67
2023-01-09T15:19:15.692Z,1.88
2023-01-09T15:22:06.803Z,1.73
2023-01-09T15:24:58.043Z,3.03
2023-01-09T15:27:58.611Z,3.60
2023-01-09T15:30:46.769Z,3.80
2023-01-09T15:33:40.458Z,2.38
2023-01-09T15:36:31.425Z,2.47
2023-01-09T15:39:25.012Z,1.85
2023-01-09T15:42:49.242Z,2.55
2023-01-09T15:45:45.064Z,1.50
2023-01-09T15:48:42.714Z,5.95
2023-01-09T15:51:33.317Z,3.50
2023-01-09T15:54:35.648Z,2.88
2023-01-09T15:57:27.664Z,2.08
2023-01-09T16:00:39.711Z,4.15
2023-01-09T16:03:47.906Z,2.53
2023-01-09T16:06:54.206Z,2.55
2023-01-09T16:09:50.834Z,1.67
2023-01-09T16:12:46.458Z,2.88
2023-01-09T16:15:40.023Z,3.05
2023-01-09T16:18:54.465Z,5.25
2023-01-09T16:22:08.959Z,3.05
2023-01-09T16:25:03.247Z,2.67
2023-01-09T16:28:22.552Z,1.48
2023-01-09T16:32:41.354Z,1.48
2023-01-09T17:24:24.307Z,3.83
2023-01-09T17:27:34.385Z,7.53
2023-01-09T17:36:43.739Z,3.25
2023-01-09T17:39:39.061Z,3.20
2023-01-09T17:42:37.650Z,4.70
2023-01-09T17:45:28.616Z,4.88
2023-01-09T17:48:22.943Z,3.25
2023-01-09T17:54:16.716Z,2.78
2023-01-09T17:57:05.780Z,4.43
2023-01-09T17:59:56.322Z,5.15
2023-01-09T18:02:45.135Z,3.97
2023-01-09T18:05:36.807Z,3.42
2023-01-09T18:08:35.252Z,1.98
2023-01-09T18:11:23.658Z,1.40
2023-01-09T18:14:16.284Z,3.60
2023-01-09T18:17:09.601Z,2.35
2023-01-09T18:20:17.850Z,4.53
2023-01-09T18:23:08.132Z,1.65
2023-01-09T18:26:01.068Z,2.50
2023-01-09T18:29:05.246Z,1.70
2023-01-09T18:32:07.531Z,2.72
2023-01-09T18:35:08.217Z,4.30
2023-01-09T18:38:25.983Z,2.58
2023-01-09T18:42:05.824Z,6.53
2023-01-09T18:44:53.633Z,1.88
2023-01-09T18:47:57.271Z,2.97
2023-01-09T18:51:01.612Z,3.15
2023-01-09T18:56:53.787Z,1.70
2023-01-09T19:00:10.295Z,5.20
2023-01-09T19:03:09.679Z,2.55
2023-01-09T19:06:16.859Z,2.47
2023-01-09T19:09:19.842Z,2.08
2023-01-09T19:12:34.694Z,3.97
2023-01-09T19:26:15.695Z,2.08
2023-01-09T19:48:49.155Z,1.63
2023-01-09T19:51:45.409Z,2.92
2023-01-09T19:55:00.473Z,3.67
2023-01-09T19:58:01.596Z,6.28
2023-01-09T20:03:28.796Z,5.20
2023-01-09T20:06:53.111Z,4.15
2023-01-09T20:09:52.582Z,5.82
2023-01-09T20:12:45.523Z,3.45
2023-01-09T20:18:51.872Z,3.00
2023-01-09T20:30:40.707Z,4.53
2023-01-09T20:56:14.191Z,5.95
2023-01-09T21:03:40.213Z,3.97
2023-01-09T21:10:18.544Z,8.23
2023-01-09T21:13:30.229Z,10.25
2023-01-09T21:16:55.960Z,4.40
2023-01-09T21:20:06.187Z,5.90
2023-01-09T21:26:57.092Z,8.10
2023-01-09T21:45:00.142Z,6.40
2023-01-09T21:48:29.408Z,6.68
2023-01-09T21:54:06.345Z,3.85
2023-01-09T21:57:13.920Z,6.40
2023-01-09T22:18:12.095Z,12.20
2023-01-09T22:39:35.541Z,5.43
2023-01-09T22:52:40.801Z,5.28
2023-01-09T22:53:01.384Z,6.60
2023-01-09T22:55:28.618Z,5.68
2023-01-09T23:03:12.896Z,7.93
2023-01-09T23:07:13.069Z,6.28
2023-01-09T23:10:02.636Z,8.32
2023-01-09T23:39:19.513Z,4.93
